createdAt,value
2023-03-03T00:00:05.013Z,2.44
2023-03-03T00:02:32.704Z,2.43
2023-03-03T00:05:00.355Z,2.38
2023-03-03T00:07:31.331Z,2.37
2023-03-03T00:09:58.960Z,2.36
2023-03-03T00:12:26.976Z,2.35
2023-03-03T00:14:54.701Z,2.33
2023-03-03T00:17:22.337Z,2.31
2023-03-03T00:19:50.187Z,2.32
2023-03-03T00:22:17.862Z,2.33
2023-03-03T00:24:45.825Z,2.34
2023-03-03T00:27:13.493Z,2.32
2023-03-03T00:29:41.186Z,2.32
2023-03-03T00:32:09.014Z,2.30
2023-03-03T00:34:36.678Z,2.29
2023-03-03T00:37:04.684Z,2.29
2023-03-03T00:39:32.333Z,2.29
2023-03-03T00:42:00.733Z,2.30
2023-03-03T00:44:29.346Z,2.31
2023-03-03T00:46:56.938Z,2.32
2023-03-03T00:49:25.217Z,2.33
2023-03-03T00:51:53.185Z,2.33
2023-03-03T00:54:21.117Z,2.33
2023-03-03T00:56:48.739Z,2.33
2023-03-03T00:59:16.340Z,2.33
2023-03-03T01:01:44.387Z,2.32
2023-03-03T01:04:12.053Z,2.33
2023-03-03T01:06:39.739Z,2.35
2023-03-03T01:09:07.324Z,2.33
2023-03-03T01:11:34.916Z,2.35
2023-03-03T01:14:03.270Z,2.36
2023-03-03T01:16:30.936Z,2.36
2023-03-03T01:18:58.530Z,2.37
2023-03-03T01:21:26.144Z,2.40
2023-03-03T01:23:53.728Z,2.39
2023-03-03T01:26:21.686Z,2.37
2023-03-03T01:28:49.338Z,2.34
2023-03-03T01:31:17.082Z,2.34
2023-03-03T01:33:44.732Z,2.35
2023-03-03T01:36:12.704Z,2.34
2023-03-03T01:38:40.462Z,2.34
2023-03-03T01:41:08.098Z,2.36
2023-03-03T01:43:35.740Z,2.33
2023-03-03T01:46:03.539Z,2.34
2023-03-03T01:48:31.139Z,2.32
2023-03-03T01:50:58.771Z,2.30
2023-03-03T01:53:26.372Z,2.26
2023-03-03T01:55:54.228Z,2.25
2023-03-03T01:58:21.916Z,2.25
2023-03-03T02:00:50.378Z,2.23
2023-03-03T02:03:18.360Z,2.22
2023-03-03T02:05:46.057Z,2.21
2023-03-03T02:08:13.681Z,2.22
2023-03-03T02:10:41.471Z,2.24
2023-03-03T02:13:09.134Z,2.25
2023-03-03T02:15:37.592Z,2.26
2023-03-03T02:18:05.442Z,2.26
2023-03-03T02:20:33.051Z,2.26
2023-03-03T02:23:00.878Z,2.25
2023-03-03T02:25:28.450Z,2.21
2023-03-03T02:27:57.677Z,2.21
2023-03-03T02:30:25.321Z,2.24
2023-03-03T02:32:52.937Z,2.23
2023-03-03T02:35:20.634Z,2.23
2023-03-03T02:37:48.267Z,2.22
2023-03-03T02:40:16.534Z,2.20
2023-03-03T02:42:44.175Z,2.18
2023-03-03T02:45:11.794Z,2.17
2023-03-03T02:47:39.766Z,2.17
2023-03-03T02:50:07.417Z,2.19
2023-03-03T02:52:35.365Z,2.19
2023-03-03T02:55:03.032Z,2.20
2023-03-03T02:57:30.677Z,2.20
2023-03-03T02:59:58.459Z,2.21
2023-03-03T03:02:27.461Z,2.24
2023-03-03T03:04:55.088Z,2.24
2023-03-03T03:07:22.729Z,2.24
2023-03-03T03:09:50.339Z,2.25
2023-03-03T03:12:19.453Z,2.24
2023-03-03T03:14:47.043Z,2.24
2023-03-03T03:17:14.693Z,2.23
2023-03-03T03:19:42.352Z,2.22
2023-03-03T03:22:09.924Z,2.22
2023-03-03T03:24:38.771Z,2.23
2023-03-03T03:27:06.388Z,2.24
2023-03-03T03:29:33.966Z,2.28
2023-03-03T03:32:01.566Z,2.25
2023-03-03T03:34:29.183Z,2.26
2023-03-03T03:36:56.764Z,2.24
2023-03-03T03:39:24.324Z,2.23
2023-03-03T03:41:52.320Z,2.21
2023-03-03T03:44:19.946Z,2.20
2023-03-03T03:46:47.848Z,2.19
2023-03-03T03:49:15.656Z,2.19
2023-03-03T03:51:43.244Z,2.18
2023-03-03T03:54:11.307Z,2.19
2023-03-03T03:56:38.934Z,2.19
2023-03-03T03:59:06.542Z,2.16
2023-03-03T04:01:34.134Z,2.13
2023-03-03T04:04:01.736Z,2.11
2023-03-03T04:06:29.697Z,2.06
2023-03-03T04:08:57.593Z,2.04
2023-03-03T04:11:25.438Z,2.01
2023-03-03T04:13:52.997Z,2.01
2023-03-03T04:16:20.568Z,2.00
2023-03-03T04:18:48.522Z,2.00
2023-03-03T04:21:16.102Z,1.99
2023-03-03T04:23:43.696Z,1.96
2023-03-03T04:26:11.547Z,1.97
2023-03-03T04:28:39.142Z,1.96
2023-03-03T04:31:07.149Z,1.95
2023-03-03T04:33:34.826Z,1.94
2023-03-03T04:36:02.402Z,1.94
2023-03-03T04:38:30.198Z,1.95
2023-03-03T04:40:57.856Z,1.99
2023-03-03T04:43:25.797Z,2.01
2023-03-03T04:45:53.427Z,1.99
2023-03-03T04:48:21.052Z,1.99
2023-03-03T04:50:48.846Z,1.99
2023-03-03T04:53:16.710Z,1.99
2023-03-03T04:55:44.655Z,1.98
2023-03-03T04:58:12.257Z,1.97
2023-03-03T05:00:39.859Z,2.00
2023-03-03T05:03:07.483Z,2.01
2023-03-03T05:05:35.083Z,2.03
2023-03-03T05:08:03.052Z,2.06
2023-03-03T05:10:30.673Z,2.09
2023-03-03T05:12:58.367Z,2.07
2023-03-03T05:15:26.880Z,2.06
2023-03-03T05:17:56.641Z,2.07
2023-03-03T05:20:24.643Z,2.08
2023-03-03T05:22:52.242Z,2.07
2023-03-03T05:25:19.895Z,2.08
2023-03-03T05:27:47.698Z,2.06
2023-03-03T05:30:15.259Z,2.06
2023-03-03T05:32:43.268Z,2.06
2023-03-03T05:35:10.848Z,2.05
2023-03-03T05:37:40.238Z,2.02
2023-03-03T05:40:07.906Z,2.04
2023-03-03T05:42:35.665Z,2.06
2023-03-03T05:45:03.685Z,2.07
2023-03-03T05:47:31.332Z,2.08
2023-03-03T05:49:58.962Z,2.10
2023-03-03T05:52:26.589Z,2.10
2023-03-03T05:54:54.271Z,2.10
2023-03-03T05:57:22.064Z,2.10
2023-03-03T05:59:49.707Z,2.08
2023-03-03T06:02:17.365Z,2.08
2023-03-03T06:04:45.017Z,2.08
2023-03-03T06:07:12.688Z,2.11
2023-03-03T06:09:40.745Z,2.12
2023-03-03T06:12:08.428Z,2.14
2023-03-03T06:14:36.122Z,2.15
2023-03-03T06:17:04.056Z,2.14
2023-03-03T06:19:31.651Z,2.12
2023-03-03T06:22:00.851Z,2.11
2023-03-03T06:24:30.592Z,2.09
2023-03-03T06:26:58.257Z,2.08
2023-03-03T06:29:25.949Z,2.09
2023-03-03T06:31:53.814Z,2.11
2023-03-03T06:34:21.574Z,2.13
2023-03-03T06:36:49.232Z,2.16
2023-03-03T06:39:17.030Z,2.19
2023-03-03T06:41:44.672Z,2.21
2023-03-03T06:44:13.164Z,2.20
2023-03-03T06:46:41.234Z,2.23
2023-03-03T06:49:08.892Z,2.23
2023-03-03T06:51:36.498Z,2.24
2023-03-03T06:54:04.466Z,2.24
2023-03-03T06:56:32.109Z,2.25
2023-03-03T06:59:00.096Z,2.28
2023-03-03T07:01:28.055Z,2.31
2023-03-03T07:03:55.769Z,2.34
2023-03-03T07:06:25.007Z,2.35
2023-03-03T07:08:53.042Z,2.35
2023-03-03T07:11:21.275Z,2.35
2023-03-03T07:13:48.949Z,2.38
2023-03-03T07:16:16.837Z,2.37
2023-03-03T07:18:45.762Z,2.38
2023-03-03T07:21:13.393Z,2.39
2023-03-03T07:23:43.002Z,2.41
2023-03-03T07:26:10.658Z,2.41
2023-03-03T07:28:38.346Z,2.40
2023-03-03T07:31:06.375Z,2.39
2023-03-03T07:33:34.117Z,2.40
2023-03-03T07:36:02.258Z,2.40
2023-03-03T07:38:30.062Z,2.41
2023-03-03T07:40:58.038Z,2.42
2023-03-03T07:43:27.807Z,2.43
2023-03-03T07:45:55.726Z,2.46
2023-03-03T07:48:24.264Z,2.47
2023-03-03T07:50:51.998Z,2.50
2023-03-03T07:53:19.909Z,2.54
2023-03-03T07:55:48.376Z,2.59
2023-03-03T07:58:16.675Z,2.64
2023-03-03T08:00:44.946Z,2.66
2023-03-03T08:03:12.628Z,2.67
2023-03-03T08:05:40.422Z,2.68
2023-03-03T08:08:08.508Z,2.70
2023-03-03T08:10:36.463Z,2.70
2023-03-03T08:13:04.641Z,2.71
2023-03-03T08:15:32.571Z,2.71
2023-03-03T08:18:00.388Z,2.74
2023-03-03T08:20:28.686Z,2.75
2023-03-03T08:22:56.444Z,2.76
2023-03-03T08:25:24.187Z,2.76
2023-03-03T08:27:51.830Z,2.75
2023-03-03T08:30:19.514Z,2.77
2023-03-03T08:32:48.212Z,2.78
2023-03-03T08:35:16.062Z,2.84
2023-03-03T08:37:44.183Z,2.86
2023-03-03T08:40:11.995Z,2.88
2023-03-03T08:42:39.742Z,2.87
2023-03-03T08:45:08.284Z,2.88
2023-03-03T08:47:36.018Z,2.90
2023-03-03T08:50:04.497Z,2.88
2023-03-03T08:52:32.455Z,2.89
2023-03-03T08:55:00.861Z,2.88
2023-03-03T08:57:28.880Z,2.89
2023-03-03T08:59:57.085Z,2.91
2023-03-03T09:02:25.173Z,2.92
2023-03-03T09:04:53.033Z,2.94
2023-03-03T09:07:21.034Z,2.95
2023-03-03T09:09:49.273Z,2.98
2023-03-03T09:12:17.167Z,3.02
2023-03-03T09:14:45.585Z,3.07
2023-03-03T09:17:13.612Z,3.11
2023-03-03T09:19:41.401Z,3.14
2023-03-03T09:22:09.878Z,3.20
2023-03-03T09:24:37.647Z,3.26
2023-03-03T09:27:06.008Z,3.27
2023-03-03T09:29:33.850Z,3.31
2023-03-03T09:32:02.552Z,3.30
2023-03-03T09:34:30.931Z,3.33
2023-03-03T09:37:00.411Z,3.38
2023-03-03T09:39:28.763Z,3.43
2023-03-03T09:41:56.510Z,3.46
2023-03-03T09:44:24.320Z,3.48
2023-03-03T09:46:52.167Z,3.52
2023-03-03T09:49:20.023Z,3.59
2023-03-03T09:51:48.329Z,3.63
2023-03-03T09:54:16.328Z,3.66
2023-03-03T09:56:44.805Z,3.69
2023-03-03T09:59:13.334Z,3.69
2023-03-03T10:01:41.113Z,3.68
2023-03-03T10:04:08.962Z,3.70
2023-03-03T10:06:36.847Z,3.71
2023-03-03T10:09:04.683Z,3.72
2023-03-03T10:11:32.994Z,3.74
2023-03-03T10:14:00.973Z,3.77
2023-03-03T10:16:29.229Z,3.78
2023-03-03T10:18:57.000Z,3.85
2023-03-03T10:21:24.935Z,3.89
2023-03-03T10:23:56.901Z,3.94
2023-03-03T10:26:42.009Z,3.96
2023-03-03T10:29:12.542Z,3.97
2023-03-03T10:31:40.469Z,4.01
2023-03-03T10:34:08.762Z,4.01
2023-03-03T10:36:36.480Z,4.04
2023-03-03T10:39:04.448Z,4.06
2023-03-03T10:41:32.597Z,4.09
2023-03-03T10:44:01.007Z,4.12
2023-03-03T10:46:29.161Z,4.14
2023-03-03T10:48:57.757Z,4.16
2023-03-03T10:51:25.622Z,4.18
2023-03-03T10:53:54.317Z,4.21
2023-03-03T10:56:22.130Z,4.23
2023-03-03T10:58:50.139Z,4.24
2023-03-03T11:01:18.132Z,4.22
2023-03-03T11:03:45.953Z,4.20
2023-03-03T11:06:14.659Z,4.22
2023-03-03T11:08:42.660Z,4.24
2023-03-03T11:11:10.804Z,4.26
2023-03-03T11:13:38.775Z,4.30
2023-03-03T11:16:07.138Z,4.33
2023-03-03T11:18:35.511Z,4.39
2023-03-03T11:21:03.383Z,4.46
2023-03-03T11:23:31.401Z,4.50
2023-03-03T11:25:59.257Z,4.53
2023-03-03T11:28:27.092Z,4.55
2023-03-03T11:30:55.958Z,4.57
2023-03-03T11:33:23.948Z,4.57
2023-03-03T11:35:52.059Z,4.56
2023-03-03T11:38:20.153Z,4.60
2023-03-03T11:40:48.137Z,4.65
2023-03-03T11:43:29.893Z,4.68
2023-03-03T11:46:03.508Z,4.73
2023-03-03T11:48:31.637Z,4.80
2023-03-03T11:50:59.483Z,4.86
2023-03-03T11:53:27.812Z,4.94
2023-03-03T11:55:55.668Z,5.01
2023-03-03T11:58:23.565Z,5.07
2023-03-03T12:00:51.427Z,5.14
2023-03-03T12:03:19.223Z,5.19
2023-03-03T12:05:47.302Z,5.26
2023-03-03T12:08:15.554Z,5.29
2023-03-03T12:10:44.682Z,5.34
2023-03-03T12:13:12.726Z,5.39
2023-03-03T12:15:40.731Z,5.42
2023-03-03T12:18:08.877Z,5.47
2023-03-03T12:20:36.673Z,5.50
2023-03-03T12:23:07.282Z,5.53
2023-03-03T12:25:35.370Z,5.55
2023-03-03T12:28:03.443Z,5.56
2023-03-03T12:30:32.075Z,5.56
2023-03-03T12:33:00.556Z,5.57
2023-03-03T12:35:28.334Z,5.59
2023-03-03T12:37:56.337Z,5.53
2023-03-03T12:40:24.120Z,5.51
2023-03-03T12:42:52.311Z,5.51
2023-03-03T12:45:20.478Z,5.51
2023-03-03T12:47:48.506Z,5.54
2023-03-03T12:50:16.370Z,5.55
2023-03-03T12:52:44.265Z,5.53
2023-03-03T12:55:12.939Z,5.52
2023-03-03T12:57:40.702Z,5.51
2023-03-03T13:00:08.771Z,5.50
2023-03-03T13:02:36.809Z,5.55
2023-03-03T13:05:04.746Z,5.61
2023-03-03T13:07:33.611Z,5.65
2023-03-03T13:10:01.520Z,5.69
2023-03-03T13:12:29.891Z,5.68
2023-03-03T13:14:57.734Z,5.68
2023-03-03T13:17:25.960Z,5.68
2023-03-03T13:19:54.398Z,5.71
2023-03-03T13:22:22.467Z,5.69
2023-03-03T13:24:50.477Z,5.70
2023-03-03T13:27:18.333Z,5.68
2023-03-03T13:29:46.479Z,5.68
2023-03-03T13:32:14.708Z,5.69
2023-03-03T13:34:42.536Z,5.70
2023-03-03T13:37:10.713Z,5.74
2023-03-03T13:39:38.803Z,5.80
2023-03-03T13:42:06.648Z,5.88
2023-03-03T13:44:34.586Z,5.95
2023-03-03T13:47:02.322Z,6.02
2023-03-03T13:49:30.297Z,6.11
2023-03-03T13:51:58.265Z,6.15
2023-03-03T13:54:26.183Z,6.20
2023-03-03T13:56:54.436Z,6.22
2023-03-03T13:59:22.541Z,6.24
2023-03-03T14:01:50.646Z,6.24
2023-03-03T14:04:18.617Z,6.24
2023-03-03T14:06:46.703Z,6.25
2023-03-03T14:09:15.890Z,6.30
2023-03-03T14:11:43.649Z,6.38
2023-03-03T14:14:12.183Z,6.41
2023-03-03T14:16:40.086Z,6.42
2023-03-03T14:19:08.101Z,6.39
2023-03-03T14:21:37.019Z,6.37
2023-03-03T14:24:05.196Z,6.37
2023-03-03T14:26:33.384Z,6.32
2023-03-03T14:29:01.357Z,6.29
2023-03-03T14:31:29.173Z,6.29
2023-03-03T14:33:57.371Z,6.32
2023-03-03T14:36:25.377Z,6.36
2023-03-03T14:38:53.437Z,6.38
2023-03-03T14:41:21.347Z,6.42
2023-03-03T14:43:49.309Z,6.45
2023-03-03T14:46:18.107Z,6.43
2023-03-03T14:48:46.005Z,6.36
2023-03-03T14:51:14.466Z,6.29
2023-03-03T14:53:42.362Z,6.21
2023-03-03T14:56:10.254Z,6.15
2023-03-03T14:58:38.695Z,6.17
2023-03-03T15:01:06.552Z,6.19
2023-03-03T15:03:34.956Z,6.21
2023-03-03T15:06:03.008Z,6.25
2023-03-03T15:08:31.187Z,6.31
2023-03-03T15:11:00.545Z,6.53
2023-03-03T15:13:29.671Z,6.65
2023-03-03T15:15:57.673Z,6.73
2023-03-03T15:18:25.630Z,6.73
2023-03-03T15:20:53.927Z,6.71
2023-03-03T15:23:22.489Z,6.67
2023-03-03T15:25:54.595Z,6.63
2023-03-03T15:28:24.450Z,6.57
2023-03-03T15:30:52.298Z,6.58
2023-03-03T15:33:21.023Z,6.57
2023-03-03T15:35:49.700Z,6.57
2023-03-03T15:38:17.659Z,6.60
2023-03-03T15:40:45.652Z,6.59
2023-03-03T15:43:13.955Z,6.70
2023-03-03T15:45:41.795Z,7.46
2023-03-03T15:48:10.042Z,8.02
2023-03-03T15:50:38.349Z,8.54
2023-03-03T15:53:06.802Z,8.97
2023-03-03T15:55:35.448Z,8.99
2023-03-03T15:58:03.503Z,8.78
2023-03-03T16:00:31.734Z,8.57
2023-03-03T16:02:59.762Z,8.31
2023-03-03T16:05:28.369Z,8.00
2023-03-03T16:07:56.269Z,7.74
2023-03-03T16:10:24.330Z,7.49
2023-03-03T16:12:53.034Z,7.21
2023-03-03T16:15:20.918Z,6.93
2023-03-03T16:17:49.189Z,6.68
2023-03-03T16:20:17.174Z,6.45
2023-03-03T16:22:44.951Z,6.19
2023-03-03T16:25:13.604Z,5.95
2023-03-03T16:27:41.683Z,5.75
2023-03-03T16:30:09.901Z,5.59
2023-03-03T16:32:37.823Z,5.41
2023-03-03T16:35:06.331Z,5.25
2023-03-03T16:37:35.325Z,5.10
2023-03-03T16:40:03.759Z,4.95
2023-03-03T16:42:32.017Z,4.79
2023-03-03T16:44:59.945Z,4.64
2023-03-03T16:47:27.863Z,4.48
2023-03-03T16:49:56.540Z,4.33
2023-03-03T16:52:24.435Z,4.18
2023-03-03T16:54:54.648Z,4.04
2023-03-03T16:57:22.665Z,3.92
2023-03-03T16:59:50.606Z,3.81
2023-03-03T17:02:19.348Z,3.70
2023-03-03T17:04:47.256Z,3.59
2023-03-03T17:07:15.328Z,3.47
2023-03-03T17:09:43.272Z,3.36
2023-03-03T17:12:11.297Z,3.27
2023-03-03T17:14:39.928Z,3.18
2023-03-03T17:17:07.815Z,3.07
2023-03-03T17:19:36.818Z,2.97
2023-03-03T17:22:04.624Z,2.87
2023-03-03T17:24:32.451Z,2.77
2023-03-03T17:27:00.852Z,2.69
2023-03-03T17:29:28.936Z,2.63
2023-03-03T17:31:57.299Z,2.58
2023-03-03T17:34:25.175Z,2.53
2023-03-03T17:36:52.966Z,2.49
2023-03-03T17:39:21.056Z,2.44
2023-03-03T17:41:49.199Z,2.41
2023-03-03T17:44:17.309Z,2.36
2023-03-03T17:46:45.317Z,2.29
2023-03-03T17:49:13.364Z,2.21
2023-03-03T17:51:41.222Z,2.13
2023-03-03T17:54:09.058Z,2.05
2023-03-03T17:56:37.695Z,1.95
2023-03-03T17:59:05.607Z,1.86
2023-03-03T18:01:33.438Z,1.79
2023-03-03T18:04:02.213Z,1.71
2023-03-03T18:06:30.059Z,1.65
2023-03-03T18:09:12.910Z,1.61
2023-03-03T18:11:41.581Z,1.54
2023-03-03T18:14:09.905Z,1.52
2023-03-03T18:16:37.816Z,1.51
2023-03-03T18:19:06.273Z,1.48
2023-03-03T18:21:35.354Z,1.44
2023-03-03T18:24:03.435Z,1.42
2023-03-03T18:26:43.596Z,1.39
2023-03-03T18:29:17.539Z,1.34
2023-03-03T18:31:45.747Z,1.28
2023-03-03T18:34:13.672Z,1.23
2023-03-03T18:36:42.260Z,1.19
2023-03-03T18:39:10.371Z,1.16
2023-03-03T18:41:39.922Z,1.13
2023-03-03T18:44:07.858Z,1.13
2023-03-03T18:46:35.989Z,1.11
2023-03-03T18:49:04.608Z,1.10
2023-03-03T18:51:32.636Z,1.06
2023-03-03T18:54:00.943Z,1.03
2023-03-03T18:56:28.970Z,1.00
2023-03-03T18:58:56.767Z,0.99
2023-03-03T19:01:25.502Z,0.97
2023-03-03T19:03:53.840Z,0.96
2023-03-03T19:06:21.889Z,0.96
2023-03-03T19:08:54.325Z,0.95
2023-03-03T19:11:22.182Z,0.96
2023-03-03T19:13:50.605Z,0.98
2023-03-03T19:16:18.767Z,1.02
2023-03-03T19:18:46.821Z,1.06
2023-03-03T19:21:14.656Z,1.12
2023-03-03T19:23:42.879Z,1.19
2023-03-03T19:26:11.545Z,1.27
2023-03-03T19:28:39.592Z,1.37
2023-03-03T19:31:07.857Z,1.47
2023-03-03T19:33:35.926Z,1.56
2023-03-03T19:36:03.880Z,1.64
2023-03-03T19:38:33.066Z,1.74
2023-03-03T19:41:01.203Z,1.84
2023-03-03T19:43:29.316Z,1.90
2023-03-03T19:45:57.349Z,1.95
2023-03-03T19:48:25.751Z,1.98
2023-03-03T19:50:54.219Z,2.01
2023-03-03T19:53:22.161Z,2.04
2023-03-03T19:55:50.186Z,2.08
2023-03-03T19:58:18.740Z,2.14
2023-03-03T20:00:46.716Z,2.19
2023-03-03T20:03:14.981Z,2.19
2023-03-03T20:05:42.960Z,2.20
2023-03-03T20:08:11.188Z,2.21
2023-03-03T20:10:39.416Z,2.22
2023-03-03T20:13:07.455Z,2.21
2023-03-03T20:15:35.420Z,2.20
2023-03-03T20:18:03.405Z,2.19
2023-03-03T20:20:31.262Z,2.20
2023-03-03T20:22:59.335Z,2.23
2023-03-03T20:25:27.155Z,2.25
2023-03-03T20:27:55.361Z,2.29
2023-03-03T20:30:23.473Z,2.32
2023-03-03T20:32:53.315Z,2.34
2023-03-03T20:35:23.628Z,2.37
2023-03-03T20:37:51.675Z,2.40
2023-03-03T20:40:19.978Z,2.41
2023-03-03T20:42:47.830Z,2.42
2023-03-03T20:45:16.350Z,2.44
2023-03-03T20:47:44.255Z,2.44
2023-03-03T20:50:15.666Z,2.43
2023-03-03T20:52:44.066Z,2.41
2023-03-03T20:55:12.027Z,2.45
2023-03-03T20:57:39.948Z,2.47
2023-03-03T21:00:07.953Z,2.48
2023-03-03T21:02:35.805Z,2.44
2023-03-03T21:05:05.764Z,2.42
2023-03-03T21:07:33.861Z,2.43
2023-03-03T21:10:02.335Z,2.42
2023-03-03T21:12:30.349Z,2.40
2023-03-03T21:14:58.848Z,2.38
2023-03-03T21:17:26.844Z,2.37
2023-03-03T21:19:54.633Z,2.38
2023-03-03T21:22:22.989Z,2.39
2023-03-03T21:24:50.825Z,2.38
2023-03-03T21:27:18.785Z,2.37
2023-03-03T21:29:47.326Z,2.35
2023-03-03T21:32:15.321Z,2.38
2023-03-03T21:34:44.024Z,2.40
2023-03-03T21:37:12.726Z,2.42
2023-03-03T21:39:40.510Z,2.44
2023-03-03T21:42:08.464Z,2.45
2023-03-03T21:44:36.517Z,2.44
2023-03-03T21:47:04.714Z,2.42
2023-03-03T21:49:32.589Z,2.47
2023-03-03T21:52:00.438Z,2.51
2023-03-03T21:54:28.232Z,2.51
2023-03-03T21:56:56.008Z,2.49
2023-03-03T21:59:24.491Z,2.50
2023-03-03T22:01:52.542Z,2.55
2023-03-03T22:04:20.406Z,2.59
2023-03-03T22:06:48.687Z,2.62
2023-03-03T22:09:16.572Z,2.64
2023-03-03T22:11:44.717Z,2.68
2023-03-03T22:14:12.756Z,2.70
2023-03-03T22:16:40.596Z,2.71
2023-03-03T22:19:10.265Z,2.70
2023-03-03T22:21:38.258Z,2.70
2023-03-03T22:24:06.621Z,2.72
2023-03-03T22:26:34.343Z,2.75
2023-03-03T22:29:02.272Z,2.76
2023-03-03T22:31:30.545Z,2.76
2023-03-03T22:33:58.405Z,2.76
2023-03-03T22:36:26.528Z,2.74
2023-03-03T22:38:54.414Z,2.75
2023-03-03T22:41:22.741Z,2.76
2023-03-03T22:43:51.336Z,2.76
2023-03-03T22:46:19.260Z,2.75
2023-03-03T22:48:46.988Z,2.76
2023-03-03T22:51:14.901Z,2.81
2023-03-03T22:53:42.604Z,2.86
2023-03-03T22:56:10.747Z,2.89
2023-03-03T22:58:38.632Z,2.87
2023-03-03T23:01:06.702Z,2.82
2023-03-03T23:03:34.879Z,2.77
2023-03-03T23:06:02.715Z,2.74
2023-03-03T23:08:30.823Z,2.74
2023-03-03T23:10:58.707Z,2.73
2023-03-03T23:13:27.637Z,2.76
2023-03-03T23:15:58.591Z,2.80
2023-03-03T23:18:26.363Z,2.84
2023-03-03T23:20:54.502Z,2.88
2023-03-03T23:23:22.234Z,2.90
2023-03-03T23:25:51.855Z,2.92
2023-03-03T23:28:19.612Z,2.93
2023-03-03T23:30:47.381Z,2.94
2023-03-03T23:33:15.468Z,2.98
2023-03-03T23:35:45.416Z,3.02
2023-03-03T23:38:17.817Z,3.05
2023-03-03T23:40:46.934Z,3.10
2023-03-03T23:43:14.619Z,3.18
2023-03-03T23:45:42.336Z,3.21
2023-03-03T23:48:10.560Z,3.23
2023-03-03T23:50:39.461Z,3.21
2023-03-03T23:53:07.134Z,3.19
2023-03-03T23:55:34.929Z,3.19
2023-03-03T23:58:03.021Z,3.19
